createdAt,value
2018-02-24T00:00:54.793Z,0.90
2018-02-24T00:03:23.038Z,0.90
2018-02-24T00:05:51.362Z,0.80
2018-02-24T00:08:19.598Z,0.80
2018-02-24T00:10:48.598Z,0.70
2018-02-24T00:13:17.598Z,0.60
2018-02-24T00:15:46.640Z,0.60
2018-02-24T00:18:14.898Z,0.50
2018-02-24T00:20:43.173Z,0.60
2018-02-24T00:23:12.170Z,0.60
2018-02-24T00:25:40.441Z,0.50
2018-02-24T00:28:08.701Z,0.50
2018-02-24T00:30:36.947Z,0.40
2018-02-24T00:33:05.192Z,0.30
2018-02-24T00:35:33.447Z,0.30
2018-02-24T00:38:01.705Z,0.20
2018-02-24T00:40:29.958Z,0.20
2018-02-24T00:42:58.993Z,0.20
2018-02-24T00:45:27.240Z,0.10
2018-02-24T00:47:56.239Z,0.20
2018-02-24T00:50:25.242Z,0.20
2018-02-24T00:52:53.495Z,0.10
2018-02-24T00:55:22.489Z,0.30
2018-02-24T00:57:51.554Z,0.40
2018-02-24T01:00:19.771Z,0.30
2018-02-24T01:02:48.996Z,0.40
2018-02-24T01:05:17.235Z,0.30
2018-02-24T01:07:46.258Z,0.40
2018-02-24T01:10:14.503Z,0.30
2018-02-24T01:12:43.532Z,0.40
2018-02-24T01:15:11.785Z,0.30
2018-02-24T01:17:40.803Z,0.30
2018-02-24T01:20:09.038Z,0.30
2018-02-24T01:22:38.073Z,0.40
2018-02-24T01:25:06.370Z,0.30
2018-02-24T01:27:34.723Z,0.50
2018-02-24T01:30:02.982Z,0.60
2018-02-24T01:32:31.210Z,0.60
2018-02-24T01:34:59.459Z,0.70
2018-02-24T01:37:27.741Z,0.80
2018-02-24T01:39:56.018Z,0.80
2018-02-24T01:42:24.294Z,0.90
2018-02-24T01:44:52.571Z,0.90
2018-02-24T01:47:20.834Z,1.00
2018-02-24T01:49:49.116Z,1.00
2018-02-24T01:52:17.370Z,1.00
2018-02-24T01:54:46.374Z,1.10
2018-02-24T01:57:14.723Z,1.00
2018-02-24T01:59:42.975Z,1.10
2018-02-24T02:02:11.217Z,1.20
2018-02-24T02:04:39.555Z,1.20
2018-02-24T02:07:07.792Z,1.10
2018-02-24T02:09:36.049Z,1.00
2018-02-24T02:12:04.305Z,1.00
2018-02-24T02:14:33.301Z,0.80
2018-02-24T02:17:01.593Z,0.70
2018-02-24T02:19:29.838Z,0.70
2018-02-24T02:21:58.854Z,0.70
2018-02-24T02:24:27.118Z,0.60
2018-02-24T02:26:55.353Z,0.60
2018-02-24T02:29:23.611Z,0.70
2018-02-24T02:31:51.922Z,0.70
2018-02-24T02:34:20.154Z,0.70
2018-02-24T02:36:48.429Z,0.70
2018-02-24T02:39:17.522Z,0.80
2018-02-24T02:41:45.777Z,0.80
2018-02-24T02:44:15.475Z,0.80
2018-02-24T02:46:44.610Z,0.80
2018-02-24T02:49:12.853Z,0.70
2018-02-24T02:51:41.886Z,0.90
2018-02-24T02:54:10.132Z,0.80
2018-02-24T02:56:38.405Z,0.80
2018-02-24T02:59:06.645Z,0.80
2018-02-24T03:01:34.869Z,0.80
2018-02-24T03:04:03.178Z,0.90
2018-02-24T03:06:31.408Z,1.10
2018-02-24T03:09:00.419Z,1.10
2018-02-24T03:11:28.651Z,1.10
2018-02-24T03:13:56.984Z,1.10
2018-02-24T03:16:25.229Z,1.10
2018-02-24T03:18:53.483Z,1.10
2018-02-24T03:21:21.811Z,1.10
2018-02-24T03:23:50.032Z,1.20
2018-02-24T03:26:28.180Z,1.20
2018-02-24T03:28:56.475Z,1.30
2018-02-24T03:31:24.806Z,1.30
2018-02-24T03:33:52.986Z,1.30
2018-02-24T03:36:22.002Z,1.30
2018-02-24T03:38:50.294Z,1.20
2018-02-24T03:41:18.553Z,1.20
2018-02-24T03:43:46.859Z,1.20
2018-02-24T03:46:18.030Z,1.20
2018-02-24T03:48:46.258Z,1.30
2018-02-24T03:51:14.491Z,1.40
2018-02-24T03:53:42.773Z,1.40
2018-02-24T03:56:10.978Z,1.40
2018-02-24T03:58:39.267Z,1.40
2018-02-24T04:01:07.537Z,1.40
2018-02-24T04:03:35.792Z,1.40
2018-02-24T04:06:04.787Z,1.10
2018-02-24T04:08:33.797Z,1.10
2018-02-24T04:11:02.119Z,1.10
2018-02-24T04:13:30.357Z,1.00
2018-02-24T04:15:58.643Z,1.10
2018-02-24T04:18:26.890Z,1.30
2018-02-24T04:20:55.988Z,1.10
2018-02-24T04:23:25.897Z,0.90
2018-02-24T04:25:54.194Z,0.90
2018-02-24T04:28:22.409Z,0.90
2018-02-24T04:30:50.661Z,1.00
2018-02-24T04:33:18.924Z,1.10
2018-02-24T04:35:47.154Z,1.20
2018-02-24T04:38:15.480Z,1.20
2018-02-24T04:40:43.754Z,1.20
2018-02-24T04:43:12.015Z,1.40
2018-02-24T04:45:40.315Z,1.40
2018-02-24T04:48:08.575Z,1.50
2018-02-24T04:50:37.831Z,1.40
2018-02-24T04:53:06.136Z,1.40
2018-02-24T04:55:35.296Z,1.70
2018-02-24T04:58:03.640Z,1.60
2018-02-24T05:00:31.875Z,1.80
2018-02-24T05:03:00.148Z,1.90
2018-02-24T05:05:28.470Z,2.00
2018-02-24T05:07:56.753Z,2.00
2018-02-24T05:10:25.011Z,2.00
2018-02-24T05:12:53.267Z,2.00
2018-02-24T05:15:22.384Z,1.90
2018-02-24T05:17:50.734Z,1.90
2018-02-24T05:20:18.955Z,2.00
2018-02-24T05:22:47.195Z,1.90
2018-02-24T05:25:15.421Z,1.80
2018-02-24T05:27:43.676Z,1.90
2018-02-24T05:30:11.962Z,2.00
2018-02-24T05:32:40.240Z,2.10
2018-02-24T05:35:08.509Z,2.20
2018-02-24T05:37:36.728Z,2.30
2018-02-24T05:40:04.991Z,2.40
2018-02-24T05:42:33.237Z,2.50
2018-02-24T05:45:01.473Z,2.50
2018-02-24T05:47:29.743Z,2.60
2018-02-24T05:49:58.053Z,2.60
2018-02-24T05:52:26.348Z,2.60
2018-02-24T05:54:54.644Z,2.50
2018-02-24T05:57:22.849Z,2.40
2018-02-24T05:59:51.089Z,2.40
2018-02-24T06:02:19.310Z,2.40
2018-02-24T06:04:47.722Z,2.40
2018-02-24T06:07:15.940Z,2.30
2018-02-24T06:09:44.279Z,2.30
2018-02-24T06:12:12.509Z,2.20
2018-02-24T06:14:40.756Z,2.30
2018-02-24T06:17:09.078Z,2.30
2018-02-24T06:19:38.165Z,2.30
2018-02-24T06:22:06.390Z,2.30
2018-02-24T06:24:34.631Z,2.30
2018-02-24T06:27:03.638Z,2.40
2018-02-24T06:29:31.907Z,2.30
2018-02-24T06:32:00.151Z,2.30
2018-02-24T06:34:28.357Z,2.20
2018-02-24T06:36:57.387Z,2.10
2018-02-24T06:39:25.627Z,2.00
2018-02-24T06:41:53.934Z,2.10
2018-02-24T06:44:22.361Z,2.10
2018-02-24T06:46:50.578Z,2.10
2018-02-24T06:49:18.811Z,2.10
2018-02-24T06:51:47.027Z,2.10
2018-02-24T06:54:15.262Z,2.00
2018-02-24T06:56:43.492Z,2.00
2018-02-24T06:59:11.722Z,2.00
2018-02-24T07:01:40.074Z,2.00
2018-02-24T07:04:08.297Z,2.10
2018-02-24T07:06:36.551Z,2.00
2018-02-24T07:09:04.952Z,2.00
2018-02-24T07:11:33.278Z,2.10
2018-02-24T07:14:01.617Z,2.10
2018-02-24T07:16:29.844Z,2.10
2018-02-24T07:18:58.084Z,2.00
2018-02-24T07:21:26.366Z,2.00
2018-02-24T07:23:55.433Z,2.10
2018-02-24T07:26:24.421Z,2.10
2018-02-24T07:28:53.394Z,2.00
2018-02-24T07:31:22.492Z,2.00
2018-02-24T07:33:50.784Z,1.90
2018-02-24T07:36:19.027Z,1.90
2018-02-24T07:38:47.597Z,2.00
2018-02-24T07:41:15.898Z,2.10
2018-02-24T07:43:44.222Z,2.00
2018-02-24T07:46:12.498Z,2.00
2018-02-24T07:48:40.788Z,2.10
2018-02-24T07:51:09.064Z,2.10
2018-02-24T07:53:37.295Z,2.10
2018-02-24T07:56:06.332Z,2.20
2018-02-24T07:58:34.574Z,2.10
2018-02-24T08:01:02.842Z,2.10
2018-02-24T08:03:31.047Z,2.10
2018-02-24T08:05:59.291Z,2.20
2018-02-24T08:08:28.284Z,2.20
2018-02-24T08:10:57.315Z,2.20
2018-02-24T08:13:25.558Z,2.20
2018-02-24T08:15:54.587Z,2.20
2018-02-24T08:18:22.862Z,2.20
2018-02-24T08:20:51.137Z,2.30
2018-02-24T08:23:20.133Z,2.30
2018-02-24T08:25:48.384Z,2.30
2018-02-24T08:28:17.410Z,2.30
2018-02-24T08:30:45.693Z,2.30
2018-02-24T08:33:13.949Z,2.30
2018-02-24T08:35:42.231Z,2.40
2018-02-24T08:38:10.457Z,2.40
2018-02-24T08:40:38.688Z,2.50
2018-02-24T08:43:06.944Z,2.50
2018-02-24T08:45:36.020Z,2.50
2018-02-24T08:48:04.229Z,2.50
2018-02-24T08:50:32.507Z,2.50
2018-02-24T08:53:00.839Z,2.50
2018-02-24T08:55:29.033Z,2.50
2018-02-24T08:57:58.066Z,2.50
2018-02-24T09:00:26.302Z,2.40
2018-02-24T09:02:55.321Z,2.50
2018-02-24T09:05:23.574Z,2.50
2018-02-24T09:07:52.567Z,2.60
2018-02-24T09:10:20.880Z,2.50
2018-02-24T09:12:49.143Z,2.60
2018-02-24T09:15:17.388Z,2.70
2018-02-24T09:17:46.365Z,2.70
2018-02-24T09:20:15.370Z,2.70
2018-02-24T09:22:43.670Z,2.60
2018-02-24T09:25:12.652Z,2.80
2018-02-24T09:27:41.660Z,2.90
2018-02-24T09:30:09.893Z,2.90
2018-02-24T09:32:38.226Z,3.00
2018-02-24T09:35:06.474Z,2.90
2018-02-24T09:37:35.496Z,3.00
2018-02-24T09:40:04.618Z,3.00
2018-02-24T09:42:32.854Z,3.00
2018-02-24T09:45:01.145Z,2.90
2018-02-24T09:47:29.392Z,2.90
2018-02-24T09:49:58.430Z,3.00
2018-02-24T09:52:26.664Z,3.00
2018-02-24T09:54:55.691Z,3.10
2018-02-24T09:57:23.952Z,3.10
2018-02-24T09:59:52.234Z,3.30
2018-02-24T10:02:20.486Z,3.40
2018-02-24T10:04:49.503Z,3.40
2018-02-24T10:07:17.797Z,3.30
2018-02-24T10:09:46.013Z,3.40
2018-02-24T10:12:14.252Z,3.40
2018-02-24T10:14:42.507Z,3.50
2018-02-24T10:17:10.786Z,3.40
2018-02-24T10:19:39.050Z,3.30
2018-02-24T10:22:07.306Z,3.20
2018-02-24T10:24:36.313Z,3.20
2018-02-24T10:27:05.319Z,3.20
2018-02-24T10:29:33.575Z,3.20
2018-02-24T10:32:02.701Z,3.20
2018-02-24T10:34:30.970Z,3.20
2018-02-24T10:36:59.315Z,3.10
2018-02-24T10:39:27.533Z,3.10
2018-02-24T10:41:55.827Z,3.20
2018-02-24T10:44:24.082Z,3.20
2018-02-24T10:46:52.297Z,3.10
2018-02-24T10:49:20.676Z,3.10
2018-02-24T10:51:49.743Z,3.00
2018-02-24T10:54:17.994Z,3.00
2018-02-24T10:56:47.005Z,3.10
2018-02-24T10:59:15.239Z,3.00
2018-02-24T11:01:43.567Z,3.10
2018-02-24T11:04:11.829Z,3.00
2018-02-24T11:06:40.078Z,3.00
2018-02-24T11:09:08.314Z,3.00
2018-02-24T11:11:36.559Z,3.10
2018-02-24T11:14:04.820Z,3.20
2018-02-24T11:16:33.850Z,3.40
2018-02-24T11:19:02.129Z,3.30
2018-02-24T11:21:30.343Z,3.40
2018-02-24T11:23:58.561Z,3.50
2018-02-24T11:26:26.842Z,3.60
2018-02-24T11:28:55.062Z,3.60
2018-02-24T11:31:23.284Z,3.60
2018-02-24T11:33:51.735Z,3.60
2018-02-24T11:36:19.949Z,3.50
2018-02-24T11:38:48.270Z,3.40
2018-02-24T11:41:16.514Z,3.40
2018-02-24T11:43:44.754Z,3.40
2018-02-24T11:46:12.969Z,3.50
2018-02-24T11:48:41.251Z,3.50
2018-02-24T11:51:09.611Z,3.50
2018-02-24T11:53:37.878Z,3.50
2018-02-24T11:56:06.214Z,3.50
2018-02-24T11:58:34.440Z,3.60
2018-02-24T12:01:02.743Z,3.60
2018-02-24T12:03:31.896Z,3.60
2018-02-24T12:06:00.173Z,3.70
2018-02-24T12:08:28.568Z,3.60
2018-02-24T12:10:56.813Z,3.70
2018-02-24T12:13:25.813Z,3.70
2018-02-24T12:15:54.818Z,3.60
2018-02-24T12:18:23.060Z,3.60
2018-02-24T12:20:51.404Z,3.60
2018-02-24T12:23:19.638Z,3.50
2018-02-24T12:25:47.933Z,3.50
2018-02-24T12:28:16.244Z,3.40
2018-02-24T12:30:44.478Z,3.50
2018-02-24T12:33:12.745Z,3.50
2018-02-24T12:35:41.757Z,3.50
2018-02-24T12:38:10.069Z,3.50
2018-02-24T12:40:38.420Z,3.50
2018-02-24T12:43:06.623Z,3.50
2018-02-24T12:45:34.893Z,3.60
2018-02-24T12:48:03.137Z,3.60
2018-02-24T12:50:31.380Z,3.60
2018-02-24T12:52:59.606Z,3.50
2018-02-24T12:55:27.855Z,3.40
2018-02-24T12:57:56.083Z,3.40
2018-02-24T13:00:24.329Z,3.40
2018-02-24T13:02:52.578Z,3.40
2018-02-24T13:05:20.865Z,3.30
2018-02-24T13:07:49.109Z,3.20
2018-02-24T13:10:18.143Z,3.10
2018-02-24T13:12:46.374Z,3.10
2018-02-24T13:15:14.625Z,3.10
2018-02-24T13:17:42.855Z,3.10
2018-02-24T13:20:11.979Z,3.00
2018-02-24T13:22:40.198Z,2.90
2018-02-24T13:25:08.605Z,3.00
2018-02-24T13:27:36.806Z,3.00
2018-02-24T13:30:05.070Z,3.10
2018-02-24T13:32:33.329Z,3.10
2018-02-24T13:35:02.326Z,3.00
2018-02-24T13:37:30.592Z,3.00
2018-02-24T13:39:59.597Z,3.00
2018-02-24T13:42:27.848Z,3.00
2018-02-24T13:44:56.150Z,3.10
2018-02-24T13:47:25.146Z,3.10
2018-02-24T13:49:53.521Z,3.00
2018-02-24T13:52:21.758Z,3.10
2018-02-24T13:54:50.802Z,3.00
2018-02-24T13:57:19.051Z,3.10
2018-02-24T13:59:48.076Z,3.00
2018-02-24T14:02:16.285Z,2.90
2018-02-24T14:04:44.630Z,3.00
2018-02-24T14:07:12.866Z,3.00
2018-02-24T14:09:41.897Z,3.00
2018-02-24T14:12:10.119Z,2.90
2018-02-24T14:14:38.337Z,3.00
2018-02-24T14:17:06.598Z,3.00
2018-02-24T14:19:35.586Z,2.90
2018-02-24T14:22:04.600Z,3.00
2018-02-24T14:24:33.607Z,2.90
2018-02-24T14:27:01.863Z,2.90
2018-02-24T14:29:30.864Z,3.00
2018-02-24T14:31:59.135Z,2.90
2018-02-24T14:34:28.142Z,2.90
2018-02-24T14:36:56.390Z,2.90
2018-02-24T14:39:24.600Z,3.00
2018-02-24T14:41:52.862Z,3.00
2018-02-24T14:44:21.129Z,3.00
2018-02-24T14:46:50.249Z,3.10
2018-02-24T14:49:18.464Z,3.00
2018-02-24T14:51:46.732Z,3.00
2018-02-24T14:54:15.036Z,3.00
2018-02-24T14:56:44.052Z,3.10
2018-02-24T14:59:13.067Z,3.10
2018-02-24T15:01:41.332Z,3.00
2018-02-24T15:04:10.321Z,3.00
2018-02-24T15:06:39.332Z,3.00
2018-02-24T15:09:07.573Z,3.00
2018-02-24T15:11:35.797Z,3.00
2018-02-24T15:14:04.046Z,2.90
2018-02-24T15:16:32.266Z,2.90
2018-02-24T15:19:00.495Z,2.90
2018-02-24T15:21:28.740Z,2.90
2018-02-24T15:23:57.077Z,2.90
2018-02-24T15:26:25.387Z,2.90
2018-02-24T15:28:53.614Z,2.90
2018-02-24T15:31:21.832Z,2.80
2018-02-24T15:33:50.154Z,2.90
2018-02-24T15:36:18.432Z,2.90
2018-02-24T15:38:46.707Z,2.80
2018-02-24T15:41:14.952Z,2.80
2018-02-24T15:43:43.261Z,2.80
2018-02-24T15:46:11.537Z,2.80
2018-02-24T15:48:40.639Z,2.80
2018-02-24T15:51:08.878Z,2.80
2018-02-24T15:53:37.097Z,2.80
2018-02-24T15:56:05.348Z,2.90
2018-02-24T15:58:34.334Z,2.90
2018-02-24T16:01:03.398Z,2.90
2018-02-24T16:03:31.624Z,2.80
2018-02-24T16:06:00.633Z,3.00
2018-02-24T16:08:28.890Z,3.00
2018-02-24T16:10:57.886Z,3.10
2018-02-24T16:13:26.968Z,3.10
2018-02-24T16:15:55.178Z,3.00
2018-02-24T16:18:23.415Z,3.10
2018-02-24T16:20:51.682Z,2.90
2018-02-24T16:23:19.896Z,2.80
2018-02-24T16:25:48.126Z,2.80
2018-02-24T16:28:16.341Z,2.60
2018-02-24T16:30:44.609Z,2.60
2018-02-24T16:33:13.646Z,2.70
2018-02-24T16:35:41.869Z,2.60
2018-02-24T16:38:10.959Z,2.70
2018-02-24T16:40:39.174Z,2.60
2018-02-24T16:43:07.400Z,2.60
2018-02-24T16:45:35.723Z,2.50
2018-02-24T16:48:03.942Z,2.50
2018-02-24T16:50:32.250Z,2.40
2018-02-24T16:53:01.283Z,2.50
2018-02-24T16:55:29.516Z,2.40
2018-02-24T16:57:57.815Z,2.40
2018-02-24T17:00:26.091Z,2.30
2018-02-24T17:02:54.374Z,2.30
2018-02-24T17:05:22.616Z,2.40
2018-02-24T17:07:51.727Z,2.50
2018-02-24T17:10:19.928Z,2.40
2018-02-24T17:12:48.163Z,2.40
2018-02-24T17:15:17.153Z,2.50
2018-02-24T17:17:46.185Z,2.60
2018-02-24T17:20:15.187Z,2.50
2018-02-24T17:22:43.458Z,2.50
2018-02-24T17:25:11.777Z,2.50
2018-02-24T17:27:40.011Z,2.60
2018-02-24T17:30:08.237Z,2.60
2018-02-24T17:32:36.605Z,2.60
2018-02-24T17:35:04.831Z,2.60
2018-02-24T17:37:33.184Z,2.60
2018-02-24T17:40:02.207Z,2.60
2018-02-24T17:42:30.516Z,2.60
2018-02-24T17:44:58.744Z,2.60
2018-02-24T17:47:27.786Z,2.50
2018-02-24T17:49:56.057Z,2.40
2018-02-24T17:52:24.391Z,2.50
2018-02-24T17:54:53.390Z,2.50
2018-02-24T17:57:22.443Z,2.50
2018-02-24T17:59:50.673Z,2.50
2018-02-24T18:02:18.923Z,2.60
2018-02-24T18:04:47.943Z,2.50
2018-02-24T18:07:16.164Z,2.50
2018-02-24T18:09:44.380Z,2.50
2018-02-24T18:12:13.450Z,2.50
2018-02-24T18:14:41.605Z,2.40
2018-02-24T18:17:09.851Z,2.40
2018-02-24T18:19:38.128Z,2.30
2018-02-24T18:22:06.384Z,2.30
2018-02-24T18:24:34.618Z,2.20
2018-02-24T18:27:02.961Z,2.20
2018-02-24T18:29:31.935Z,2.30
2018-02-24T18:32:00.154Z,2.30
2018-02-24T18:34:28.490Z,2.30
2018-02-24T18:36:56.730Z,2.20
2018-02-24T18:39:24.978Z,2.20
2018-02-24T18:41:53.222Z,2.20
2018-02-24T18:44:21.448Z,2.20
2018-02-24T18:46:49.675Z,2.20
2018-02-24T18:49:17.897Z,2.30
2018-02-24T18:51:46.293Z,2.20
2018-02-24T18:54:14.600Z,2.30
2018-02-24T18:56:42.849Z,2.20
2018-02-24T18:59:11.128Z,2.10
2018-02-24T19:01:39.348Z,2.10
2018-02-24T19:04:07.603Z,2.00
2018-02-24T19:06:35.867Z,2.00
2018-02-24T19:09:04.856Z,2.10
2018-02-24T19:11:33.969Z,1.90
2018-02-24T19:14:02.190Z,1.90
2018-02-24T19:16:30.442Z,1.90
2018-02-24T19:18:58.677Z,2.00
2018-02-24T19:21:27.664Z,2.00
2018-02-24T19:23:56.674Z,1.90
2018-02-24T19:26:25.700Z,1.90
2018-02-24T19:28:54.019Z,1.80
2018-02-24T19:31:22.217Z,1.90
2018-02-24T19:33:51.214Z,1.90
2018-02-24T19:36:20.234Z,1.90
2018-02-24T19:38:48.516Z,1.80
2018-02-24T19:41:16.739Z,1.90
2018-02-24T19:43:44.969Z,1.90
2018-02-24T19:46:13.191Z,1.90
2018-02-24T19:48:41.428Z,1.90
2018-02-24T19:51:09.679Z,1.90
2018-02-24T19:53:37.970Z,1.90
2018-02-24T19:56:06.335Z,1.90
2018-02-24T19:58:35.361Z,1.80
2018-02-24T20:01:03.622Z,1.80
2018-02-24T20:03:31.879Z,1.70
2018-02-24T20:06:00.121Z,1.70
2018-02-24T20:08:28.484Z,1.70
2018-02-24T20:10:57.487Z,1.60
2018-02-24T20:13:25.808Z,1.50
2018-02-24T20:15:54.090Z,1.60
2018-02-24T20:18:22.317Z,1.60
2018-02-24T20:20:50.538Z,1.60
2018-02-24T20:23:18.782Z,1.60
2018-02-24T20:25:47.791Z,1.70
2018-02-24T20:28:16.787Z,1.70
2018-02-24T20:30:45.792Z,1.60
2018-02-24T20:33:14.056Z,1.60
2018-02-24T20:35:43.169Z,1.30
2018-02-24T20:38:12.167Z,1.20
2018-02-24T20:40:40.414Z,1.20
2018-02-24T20:43:08.792Z,1.20
2018-02-24T20:45:37.812Z,1.20
2018-02-24T20:48:06.024Z,1.20
2018-02-24T20:50:34.289Z,1.30
2018-02-24T20:53:02.555Z,1.30
2018-02-24T20:55:30.810Z,1.30
2018-02-24T20:57:59.043Z,1.30
2018-02-24T21:00:27.268Z,1.30
2018-02-24T21:02:55.565Z,1.30
2018-02-24T21:05:23.816Z,1.20
2018-02-24T21:07:52.097Z,1.20
2018-02-24T21:10:20.337Z,1.20
2018-02-24T21:12:49.352Z,1.20
2018-02-24T21:15:17.590Z,1.20
2018-02-24T21:17:45.822Z,1.20
2018-02-24T21:20:14.081Z,1.20
2018-02-24T21:22:42.314Z,1.30
2018-02-24T21:25:10.705Z,1.30
2018-02-24T21:27:39.104Z,1.20
2018-02-24T21:30:07.301Z,1.20
2018-02-24T21:32:35.541Z,1.10
2018-02-24T21:35:04.543Z,1.00
2018-02-24T21:37:33.568Z,1.00
2018-02-24T21:40:01.817Z,1.00
2018-02-24T21:42:30.115Z,1.10
2018-02-24T21:44:58.391Z,1.10
2018-02-24T21:47:26.689Z,1.10
2018-02-24T21:49:54.940Z,1.10
2018-02-24T21:52:23.146Z,1.10
2018-02-24T21:54:51.605Z,1.10
2018-02-24T21:57:20.614Z,1.20
2018-02-24T21:59:48.849Z,1.20
2018-02-24T22:02:17.842Z,1.30
2018-02-24T22:04:46.830Z,1.30
2018-02-24T22:07:15.066Z,1.30
2018-02-24T22:09:43.301Z,1.30
2018-02-24T22:12:11.535Z,1.30
2018-02-24T22:14:39.776Z,1.20
2018-02-24T22:17:08.054Z,1.20
2018-02-24T22:19:36.292Z,1.10
2018-02-24T22:22:07.293Z,1.10
2018-02-24T22:24:35.532Z,1.00
2018-02-24T22:27:03.766Z,1.00
2018-02-24T22:29:32.083Z,1.00
2018-02-24T22:32:00.338Z,1.00
2018-02-24T22:34:29.313Z,0.90
2018-02-24T22:36:58.402Z,0.80
2018-02-24T22:39:26.602Z,0.90
2018-02-24T22:41:55.591Z,0.80
2018-02-24T22:44:24.593Z,0.80
2018-02-24T22:46:53.590Z,0.80
2018-02-24T22:49:21.981Z,0.80
2018-02-24T22:51:50.255Z,0.80
2018-02-24T22:54:18.462Z,0.80
2018-02-24T22:56:46.703Z,0.80
2018-02-24T22:59:14.994Z,0.80
2018-02-24T23:01:43.232Z,0.70
2018-02-24T23:04:12.244Z,0.70
2018-02-24T23:06:41.256Z,0.70
2018-02-24T23:09:09.502Z,0.70
2018-02-24T23:11:38.489Z,0.70
2018-02-24T23:14:06.734Z,0.60
2018-02-24T23:16:34.954Z,0.70
2018-02-24T23:19:03.954Z,0.60
2018-02-24T23:21:32.203Z,0.60
2018-02-24T23:24:00.441Z,0.60
2018-02-24T23:26:28.669Z,0.50
2018-02-24T23:28:57.719Z,0.50
2018-02-24T23:31:25.961Z,0.50
2018-02-24T23:33:54.239Z,0.50
2018-02-24T23:36:22.457Z,0.40
2018-02-24T23:38:50.715Z,0.40
2018-02-24T23:41:18.956Z,0.40
2018-02-24T23:43:47.273Z,0.40
2018-02-24T23:46:15.511Z,0.50
2018-02-24T23:48:43.725Z,0.40
2018-02-24T23:51:11.956Z,0.40
2018-02-24T23:53:40.970Z,0.30
2018-02-24T23:56:09.204Z,0.30
2018-02-24T23:58:37.554Z,0.20
